createdAt,value
2024-04-19T00:00:21.971Z,53.84
2024-04-19T00:01:21.961Z,59.46
2024-04-19T00:02:21.918Z,58.98
2024-04-19T00:03:22.030Z,56.65
2024-04-19T00:04:21.996Z,56.37
2024-04-19T00:05:21.891Z,62.96
2024-04-19T00:06:21.884Z,54.80
2024-04-19T00:07:21.856Z,58.07
2024-04-19T00:08:22.760Z,56.20
2024-04-19T00:09:21.901Z,60.06
2024-04-19T00:10:21.851Z,63.57
2024-04-19T00:11:21.894Z,57.97
2024-04-19T00:12:21.914Z,60.47
2024-04-19T00:13:21.835Z,63.20
2024-04-19T00:14:21.795Z,65.96
2024-04-19T00:15:21.846Z,61.64
2024-04-19T00:16:21.783Z,62.10
2024-04-19T00:17:21.777Z,62.59
2024-04-19T00:18:21.832Z,66.17
2024-04-19T00:19:22.815Z,60.51
2024-04-19T00:20:22.291Z,63.01
2024-04-19T00:21:23.278Z,63.28
2024-04-19T00:22:21.750Z,60.27
2024-04-19T00:23:21.743Z,63.73
2024-04-19T00:24:21.751Z,64.14
2024-04-19T00:25:21.726Z,59.47
2024-04-19T00:26:21.755Z,63.78
2024-04-19T00:27:21.755Z,63.82
2024-04-19T00:28:21.769Z,64.11
2024-04-19T00:29:21.803Z,63.89
2024-04-19T00:30:21.781Z,66.69
2024-04-19T00:31:22.361Z,65.97
2024-04-19T00:32:21.761Z,64.40
2024-04-19T00:33:21.823Z,66.43
2024-04-19T00:34:21.765Z,63.33
2024-04-19T00:35:21.674Z,64.08
2024-04-19T00:36:21.738Z,66.82
2024-04-19T00:37:21.670Z,66.51
2024-04-19T00:38:21.722Z,62.98
2024-04-19T00:39:21.740Z,66.49
2024-04-19T00:40:21.700Z,62.44
2024-04-19T00:41:21.662Z,70.74
2024-04-19T00:42:21.672Z,69.22
2024-04-19T00:43:21.654Z,68.15
2024-04-19T00:44:21.678Z,65.10
2024-04-19T00:45:21.723Z,68.75
2024-04-19T00:46:21.700Z,68.41
2024-04-19T00:47:21.661Z,65.72
2024-04-19T00:48:21.759Z,68.90
2024-04-19T00:49:21.631Z,68.02
2024-04-19T00:50:21.657Z,68.05
2024-04-19T00:51:21.676Z,68.72
2024-04-19T00:52:21.628Z,68.22
2024-04-19T00:53:21.687Z,65.60
2024-04-19T00:54:21.619Z,68.60
2024-04-19T00:55:21.598Z,69.94
2024-04-19T00:56:21.648Z,69.38
2024-04-19T00:57:21.609Z,70.05
2024-04-19T00:58:21.607Z,70.06
2024-04-19T00:59:21.570Z,66.80
2024-04-19T01:00:21.588Z,70.48
2024-04-19T01:01:21.637Z,67.46
2024-04-19T01:02:21.586Z,71.47
2024-04-19T01:03:22.380Z,68.71
2024-04-19T01:04:21.581Z,70.13
2024-04-19T01:05:21.509Z,71.08
2024-04-19T01:06:21.524Z,71.60
2024-04-19T01:07:21.486Z,68.69
2024-04-19T01:08:21.459Z,67.17
2024-04-19T01:09:22.314Z,68.36
2024-04-19T01:10:21.462Z,70.81
2024-04-19T01:11:22.280Z,77.83
2024-04-19T01:12:21.415Z,69.26
2024-04-19T01:13:22.780Z,68.21
2024-04-19T01:14:21.389Z,69.59
2024-04-19T01:15:21.386Z,69.51
2024-04-19T01:16:21.362Z,68.40
2024-04-19T01:17:21.417Z,72.38
2024-04-19T01:18:21.473Z,66.56
2024-04-19T01:19:21.326Z,66.90
2024-04-19T01:20:21.313Z,65.74
2024-04-19T01:21:21.311Z,67.30
2024-04-19T01:22:21.311Z,67.00
2024-04-19T01:23:21.297Z,66.67
2024-04-19T01:24:21.326Z,66.73
2024-04-19T01:25:21.255Z,67.11
2024-04-19T01:26:21.255Z,66.83
2024-04-19T01:27:21.264Z,67.45
2024-04-19T01:28:21.281Z,69.06
2024-04-19T01:29:21.220Z,69.99
2024-04-19T01:30:21.251Z,66.78
2024-04-19T01:31:21.189Z,67.81
2024-04-19T01:32:21.227Z,70.44
2024-04-19T01:33:22.096Z,68.43
2024-04-19T01:34:21.379Z,68.74
2024-04-19T01:35:21.158Z,75.20
2024-04-19T01:36:21.327Z,69.52
2024-04-19T01:37:21.132Z,75.44
2024-04-19T01:38:21.208Z,71.62
2024-04-19T01:39:21.162Z,71.18
2024-04-19T01:40:21.208Z,76.53
2024-04-19T01:41:21.105Z,71.40
2024-04-19T01:42:21.099Z,70.52
2024-04-19T01:43:21.094Z,66.22
2024-04-19T01:44:21.089Z,70.03
2024-04-19T01:45:21.093Z,74.98
2024-04-19T01:46:21.090Z,71.88
2024-04-19T01:47:21.079Z,73.67
2024-04-19T01:48:21.069Z,76.83
2024-04-19T01:49:21.022Z,74.97
2024-04-19T01:50:21.115Z,74.01
2024-04-19T01:51:21.009Z,73.22
2024-04-19T01:52:20.992Z,75.12
2024-04-19T01:53:21.033Z,70.36
2024-04-19T01:54:21.038Z,73.19
2024-04-19T01:55:20.956Z,74.88
2024-04-19T01:56:20.958Z,72.72
2024-04-19T01:57:20.940Z,72.89
2024-04-19T01:58:20.946Z,67.75
2024-04-19T01:59:21.827Z,73.67
2024-04-19T02:00:20.923Z,75.04
2024-04-19T02:01:20.958Z,72.73
2024-04-19T02:02:20.906Z,72.76
2024-04-19T02:03:20.902Z,72.60
2024-04-19T02:04:21.848Z,72.74
2024-04-19T02:05:20.862Z,72.82
2024-04-19T02:06:20.851Z,72.92
2024-04-19T02:07:20.816Z,73.12
2024-04-19T02:08:20.897Z,71.97
2024-04-19T02:09:20.876Z,74.62
2024-04-19T02:10:20.776Z,77.91
2024-04-19T02:11:20.861Z,77.40
2024-04-19T02:12:20.998Z,77.57
2024-04-19T02:13:20.756Z,77.55
2024-04-19T02:14:20.720Z,78.13
2024-04-19T02:15:20.803Z,78.49
2024-04-19T02:16:20.684Z,70.37
2024-04-19T02:17:20.709Z,75.83
2024-04-19T02:18:20.782Z,72.40
2024-04-19T02:19:20.632Z,78.18
2024-04-19T02:20:20.655Z,74.59
2024-04-19T02:21:20.650Z,73.25
2024-04-19T02:22:20.604Z,75.64
2024-04-19T02:23:20.600Z,79.39
2024-04-19T02:24:20.637Z,77.41
2024-04-19T02:25:20.576Z,76.13
2024-04-19T02:26:20.586Z,76.96
2024-04-19T02:27:20.569Z,72.38
2024-04-19T02:28:20.559Z,78.26
2024-04-19T02:29:20.547Z,77.27
2024-04-19T02:30:20.565Z,75.07
2024-04-19T02:31:20.523Z,69.44
2024-04-19T02:32:20.543Z,71.38
2024-04-19T02:33:20.610Z,79.34
2024-04-19T02:34:20.589Z,77.21
2024-04-19T02:35:20.500Z,74.72
2024-04-19T02:36:20.478Z,72.47
2024-04-19T02:37:20.470Z,76.21
2024-04-19T02:38:20.463Z,70.79
2024-04-19T02:39:20.469Z,77.61
2024-04-19T02:40:20.435Z,73.27
2024-04-19T02:41:20.434Z,71.19
2024-04-19T02:42:20.466Z,73.64
2024-04-19T02:43:20.406Z,71.55
2024-04-19T02:44:20.399Z,80.42
2024-04-19T02:45:20.393Z,72.59
2024-04-19T02:46:20.439Z,71.38
2024-04-19T02:47:20.373Z,70.16
2024-04-19T02:48:20.376Z,74.82
2024-04-19T02:49:20.378Z,74.28
2024-04-19T02:50:20.350Z,75.05
2024-04-19T02:51:20.420Z,74.29
2024-04-19T02:52:20.339Z,75.80
2024-04-19T02:53:20.361Z,76.91
2024-04-19T02:54:20.340Z,72.47
2024-04-19T02:55:20.300Z,74.77
2024-04-19T02:56:20.288Z,75.46
2024-04-19T02:57:20.300Z,70.25
2024-04-19T02:58:20.306Z,72.93
2024-04-19T02:59:20.267Z,72.40
2024-04-19T03:00:20.301Z,69.83
2024-04-19T03:01:20.256Z,68.21
2024-04-19T03:02:20.244Z,70.31
2024-04-19T03:03:20.267Z,66.17
2024-04-19T03:04:20.254Z,65.41
2024-04-19T03:05:20.215Z,58.17
2024-04-19T03:06:20.259Z,60.64
2024-04-19T03:07:20.222Z,57.46
2024-04-19T03:08:20.184Z,56.01
2024-04-19T03:09:20.194Z,59.26
2024-04-19T03:10:20.159Z,51.99
2024-04-19T03:11:20.157Z,50.88
2024-04-19T03:12:20.257Z,56.75
2024-04-19T03:13:20.144Z,55.34
2024-04-19T03:14:20.094Z,50.00
2024-04-19T03:15:20.161Z,54.78
2024-04-19T03:16:20.076Z,52.78
2024-04-19T03:17:20.129Z,55.79
2024-04-19T03:18:20.103Z,53.71
2024-04-19T03:19:20.035Z,56.97
2024-04-19T03:20:20.044Z,53.59
2024-04-19T03:21:20.051Z,48.85
2024-04-19T03:22:20.031Z,50.00
2024-04-19T03:23:20.052Z,50.00
2024-04-19T03:24:20.078Z,54.93
2024-04-19T03:25:20.032Z,54.12
2024-04-19T03:26:20.005Z,51.38
2024-04-19T03:27:20.047Z,50.44
2024-04-19T03:28:20.107Z,50.63
2024-04-19T03:29:20.041Z,45.52
2024-04-19T03:30:19.979Z,36.72
2024-04-19T03:31:19.946Z,23.28
2024-04-19T03:32:19.933Z,8.81
2024-04-19T03:33:20.160Z,0.00
2024-04-19T03:34:19.934Z,0.00
2024-04-19T03:35:19.889Z,0.00
2024-04-19T03:36:19.945Z,0.00
2024-04-19T03:37:19.871Z,0.00
2024-04-19T03:38:19.907Z,0.00
2024-04-19T03:39:19.948Z,0.00
2024-04-19T03:40:19.845Z,0.00
2024-04-19T03:41:19.820Z,0.00
2024-04-19T03:42:19.891Z,0.00
2024-04-19T03:43:19.815Z,0.00
2024-04-19T03:44:19.804Z,0.00
2024-04-19T03:45:19.822Z,0.00
2024-04-19T03:46:19.790Z,0.00
2024-04-19T03:47:19.866Z,0.00
2024-04-19T03:48:19.894Z,0.00
2024-04-19T03:49:19.772Z,0.00
2024-04-19T03:50:19.765Z,4.42
2024-04-19T03:51:19.790Z,14.93
2024-04-19T03:52:19.744Z,26.38
2024-04-19T03:53:19.756Z,40.07
2024-04-19T03:54:19.818Z,49.65
2024-04-19T03:55:19.806Z,50.00
2024-04-19T03:56:19.840Z,48.41
2024-04-19T03:57:19.924Z,51.40
2024-04-19T03:58:19.923Z,50.00
2024-04-19T03:59:19.969Z,50.16
2024-04-19T04:00:19.988Z,52.24
2024-04-19T04:01:20.003Z,51.33
2024-04-19T04:02:20.075Z,49.79
2024-04-19T04:03:20.326Z,48.44
2024-04-19T04:04:20.163Z,51.61
2024-04-19T04:05:20.174Z,50.17
2024-04-19T04:06:20.239Z,50.00
2024-04-19T04:07:20.271Z,49.85
2024-04-19T04:08:20.339Z,50.36
2024-04-19T04:09:20.344Z,50.01
2024-04-19T04:10:20.434Z,50.59
2024-04-19T04:11:20.456Z,50.00
2024-04-19T04:12:20.477Z,52.29
2024-04-19T04:13:20.530Z,49.93
2024-04-19T04:14:20.581Z,49.11
2024-04-19T04:15:20.608Z,53.04
2024-04-19T04:16:20.654Z,50.71
2024-04-19T04:17:20.735Z,50.95
2024-04-19T04:18:20.906Z,50.00
2024-04-19T04:19:20.998Z,50.96
2024-04-19T04:20:20.870Z,51.75
2024-04-19T04:21:20.941Z,50.00
2024-04-19T04:22:20.967Z,52.02
2024-04-19T04:23:21.019Z,50.00
2024-04-19T04:24:21.102Z,53.47
2024-04-19T04:25:21.141Z,52.12
2024-04-19T04:26:21.172Z,52.66
2024-04-19T04:27:21.267Z,51.75
2024-04-19T04:28:21.325Z,54.63
2024-04-19T04:29:21.347Z,54.79
2024-04-19T04:30:21.433Z,55.72
2024-04-19T04:31:21.457Z,54.57
2024-04-19T04:32:21.555Z,54.56
2024-04-19T04:33:21.695Z,56.51
2024-04-19T04:34:29.015Z,50.00
2024-04-19T04:35:29.002Z,50.00
2024-04-19T04:36:28.997Z,50.00
2024-04-19T04:37:28.979Z,50.00
2024-04-19T04:38:28.981Z,50.00
2024-04-19T04:39:29.138Z,50.81
2024-04-19T04:40:29.043Z,50.96
2024-04-19T04:41:28.990Z,50.00
2024-04-19T04:42:29.024Z,50.00
2024-04-19T04:43:29.100Z,47.64
2024-04-19T04:44:28.994Z,42.59
2024-04-19T04:45:29.010Z,42.52
2024-04-19T04:46:28.998Z,39.46
2024-04-19T04:47:29.050Z,52.09
2024-04-19T04:48:29.065Z,50.00
2024-04-19T04:49:29.000Z,53.18
2024-04-19T05:12:50.694Z,54.98
2024-04-19T05:13:28.929Z,56.04
2024-04-19T05:14:28.782Z,64.29
2024-04-19T05:15:28.814Z,81.60
2024-04-19T05:16:28.800Z,108.23
2024-04-19T05:17:28.857Z,58.43
2024-04-19T05:18:28.913Z,71.82
2024-04-19T05:19:28.800Z,96.29
2024-04-19T05:20:30.635Z,132.76
2024-04-19T05:21:28.852Z,184.12
2024-04-19T05:22:28.799Z,192.79
2024-04-19T05:23:28.949Z,195.34
2024-04-19T05:24:29.688Z,193.72
2024-04-19T05:25:29.602Z,192.32
2024-04-19T05:26:29.926Z,191.83
2024-04-19T05:27:28.788Z,188.14
2024-04-19T05:28:29.106Z,185.12
2024-04-19T05:29:31.670Z,182.41
2024-04-19T05:30:28.830Z,177.85
2024-04-19T05:31:28.805Z,176.70
2024-04-19T05:32:28.904Z,175.10
2024-04-19T05:33:28.862Z,170.61
2024-04-19T05:34:28.808Z,171.86
2024-04-19T05:35:28.860Z,167.77
2024-04-19T05:36:28.894Z,163.93
2024-04-19T05:37:28.827Z,163.27
2024-04-19T05:38:28.838Z,163.84
2024-04-19T05:39:28.851Z,161.87
2024-04-19T05:40:29.631Z,165.35
2024-04-19T05:41:28.833Z,165.70
2024-04-19T05:42:30.715Z,164.50
2024-04-19T05:43:29.616Z,164.53
2024-04-19T05:44:28.835Z,164.93
2024-04-19T05:45:28.911Z,166.18
2024-04-19T05:46:28.923Z,167.08
2024-04-19T05:47:28.972Z,166.03
2024-04-19T05:48:29.917Z,164.50
2024-04-19T05:49:28.958Z,164.53
2024-04-19T05:50:28.860Z,164.61
2024-04-19T05:51:29.679Z,165.09
2024-04-19T05:52:28.849Z,163.96
2024-04-19T05:53:28.876Z,164.98
2024-04-19T05:54:29.042Z,165.04
2024-04-19T05:55:28.873Z,164.52
2024-04-19T05:56:28.918Z,164.49
2024-04-19T05:57:28.953Z,160.38
2024-04-19T05:58:28.913Z,157.86
2024-04-19T05:59:28.919Z,156.32
2024-04-19T06:00:28.920Z,156.42
2024-04-19T06:01:29.048Z,154.59
2024-04-19T06:02:29.217Z,151.97
2024-04-19T06:03:29.168Z,155.73
2024-04-19T06:04:29.132Z,153.50
2024-04-19T06:05:29.191Z,153.49
2024-04-19T06:06:29.314Z,155.73
2024-04-19T06:07:29.411Z,159.23
2024-04-19T06:08:29.381Z,157.36
2024-04-19T06:09:29.483Z,159.71
2024-04-19T06:10:29.520Z,160.39
2024-04-19T06:11:29.624Z,159.48
2024-04-19T06:12:29.733Z,158.60
2024-04-19T06:13:29.728Z,155.29
2024-04-19T06:14:29.775Z,154.31
2024-04-19T06:15:29.901Z,152.77
2024-04-19T06:16:29.891Z,153.26
2024-04-19T06:17:30.021Z,146.45
2024-04-19T06:18:30.116Z,141.60
2024-04-19T06:19:30.147Z,135.66
2024-04-19T06:20:30.127Z,130.00
2024-04-19T06:21:30.316Z,123.21
2024-04-19T06:22:30.260Z,119.42
2024-04-19T06:23:30.303Z,114.78
2024-04-19T06:24:30.486Z,109.69
2024-04-19T06:25:30.420Z,105.61
2024-04-19T06:26:30.467Z,103.88
2024-04-19T06:27:30.561Z,97.20
2024-04-19T06:28:30.577Z,97.24
2024-04-19T06:29:30.661Z,91.67
2024-04-19T06:30:30.825Z,90.95
2024-04-19T06:31:30.780Z,85.30
2024-04-19T06:32:30.822Z,85.22
2024-04-19T06:33:31.195Z,82.95
2024-04-19T06:34:30.875Z,79.38
2024-04-19T06:35:31.059Z,74.54
2024-04-19T06:36:31.025Z,72.25
2024-04-19T06:37:31.109Z,64.54
2024-04-19T06:38:31.069Z,58.64
2024-04-19T06:39:31.106Z,53.96
2024-04-19T06:40:31.204Z,49.07
2024-04-19T06:41:31.118Z,44.47
2024-04-19T06:42:31.073Z,40.50
2024-04-19T06:43:31.083Z,37.49
2024-04-19T06:44:31.063Z,50.00
2024-04-19T06:45:31.118Z,50.00
2024-04-19T06:46:31.060Z,50.64
2024-04-19T06:47:31.124Z,50.00
2024-04-19T06:48:31.218Z,46.48
2024-04-19T06:49:31.084Z,45.49
2024-04-19T06:50:31.032Z,38.17
2024-04-19T06:51:31.708Z,36.63
2024-04-19T06:52:31.052Z,34.00
2024-04-19T06:53:31.170Z,31.64
2024-04-19T06:54:31.120Z,30.00
2024-04-19T06:55:31.029Z,46.03
2024-04-19T06:56:31.044Z,53.94
2024-04-19T06:57:31.076Z,51.45
2024-04-19T06:58:31.118Z,50.36
2024-04-19T06:59:31.017Z,51.68
2024-04-19T07:01:31.184Z,50.38
2024-04-19T07:02:31.245Z,50.05
2024-04-19T07:03:31.168Z,50.00
2024-04-19T07:04:31.405Z,52.41
2024-04-19T07:05:32.665Z,52.91
2024-04-19T07:06:38.861Z,52.07
2024-04-19T07:07:32.166Z,51.04
2024-04-19T07:08:31.116Z,47.52
2024-04-19T07:09:31.167Z,41.83
2024-04-19T07:10:31.152Z,39.70
2024-04-19T07:11:31.084Z,38.57
2024-04-19T07:12:31.146Z,50.00
2024-04-19T07:13:31.125Z,50.00
2024-04-19T07:14:31.108Z,49.02
2024-04-19T07:15:31.234Z,49.29
2024-04-19T07:16:31.077Z,48.79
2024-04-19T07:17:31.072Z,49.16
2024-04-19T07:18:31.065Z,47.27
2024-04-19T07:19:31.097Z,50.38
2024-04-19T07:20:31.344Z,51.89
2024-04-19T07:21:31.033Z,51.75
2024-04-19T07:22:31.033Z,51.89
2024-04-19T07:23:31.192Z,51.37
2024-04-19T07:24:31.029Z,51.07
2024-04-19T07:25:31.032Z,51.46
2024-04-19T07:26:31.012Z,50.42
2024-04-19T07:27:36.414Z,48.71
2024-04-19T07:28:30.977Z,50.43
2024-04-19T07:29:31.147Z,47.45
2024-04-19T07:30:31.038Z,48.47
2024-04-19T07:31:31.276Z,48.51
2024-04-19T07:32:31.019Z,50.05
2024-04-19T07:33:31.008Z,52.13
2024-04-19T07:34:30.997Z,52.92
2024-04-19T07:35:30.946Z,51.22
2024-04-19T07:36:37.089Z,51.30
2024-04-19T07:37:32.830Z,51.27
2024-04-19T07:38:31.037Z,51.64
2024-04-19T07:39:30.931Z,52.97
2024-04-19T07:40:31.052Z,54.16
2024-04-19T07:41:30.877Z,56.05
2024-04-19T07:42:31.683Z,58.17
2024-04-19T07:43:30.871Z,60.55
2024-04-19T07:44:30.960Z,60.25
2024-04-19T07:45:30.977Z,62.09
2024-04-19T07:46:30.916Z,61.95
2024-04-19T07:47:31.038Z,59.05
2024-04-19T07:48:31.234Z,61.65
2024-04-19T07:49:31.067Z,60.09
2024-04-19T07:50:30.989Z,59.07
2024-04-19T07:51:31.045Z,56.42
2024-04-19T07:52:31.045Z,57.39
2024-04-19T07:53:31.057Z,54.91
2024-04-19T07:54:31.204Z,52.64
2024-04-19T07:55:31.113Z,52.25
2024-04-19T07:56:31.101Z,51.49
2024-04-19T07:57:31.174Z,52.31
2024-04-19T07:58:31.146Z,52.00
2024-04-19T07:59:31.358Z,55.00
2024-04-19T08:00:31.347Z,56.17
2024-04-19T08:01:31.239Z,55.96
2024-04-19T08:02:31.295Z,60.01
2024-04-19T08:04:31.776Z,60.04
2024-04-19T08:05:31.260Z,64.11
2024-04-19T08:06:31.302Z,64.15
2024-04-19T08:07:38.993Z,64.71
2024-04-19T08:08:32.264Z,64.18
2024-04-19T08:09:31.741Z,64.63
2024-04-19T08:10:33.892Z,65.60
2024-04-19T08:11:34.289Z,66.12
2024-04-19T08:12:31.286Z,64.23
2024-04-19T08:13:31.212Z,64.36
2024-04-19T08:14:31.177Z,64.27
2024-04-19T08:15:31.212Z,60.58
2024-04-19T08:16:32.187Z,59.18
2024-04-19T08:17:31.212Z,61.90
2024-04-19T08:18:31.180Z,57.99
2024-04-19T08:19:31.160Z,57.93
2024-04-19T08:20:31.157Z,58.01
2024-04-19T08:21:31.867Z,55.32
2024-04-19T08:22:31.165Z,52.51
2024-04-19T08:23:31.120Z,51.42
2024-04-19T08:24:31.103Z,50.00
2024-04-19T08:25:31.165Z,50.89
2024-04-19T08:26:31.114Z,50.50
2024-04-19T08:27:31.080Z,50.00
2024-04-19T08:28:31.177Z,50.08
2024-04-19T08:29:35.510Z,50.77
2024-04-19T08:30:32.157Z,48.19
2024-04-19T08:31:31.086Z,44.40
2024-04-19T08:32:31.214Z,41.22
2024-04-19T08:33:31.017Z,39.89
2024-04-19T08:34:30.980Z,39.82
2024-04-19T08:35:30.983Z,50.56
2024-04-19T08:36:31.164Z,52.38
2024-04-19T08:37:30.965Z,50.76
2024-04-19T08:38:30.962Z,50.77
2024-04-19T08:39:31.746Z,51.13
2024-04-19T08:40:31.698Z,50.63
2024-04-19T08:41:30.978Z,51.78
2024-04-19T08:42:30.991Z,50.00
2024-04-19T08:43:30.943Z,51.95
2024-04-19T08:44:30.937Z,50.00
2024-04-19T08:45:31.043Z,50.02
2024-04-19T08:46:30.929Z,46.09
2024-04-19T08:47:31.057Z,48.91
2024-04-19T08:48:31.832Z,41.32
2024-04-19T08:49:32.762Z,36.47
2024-04-19T08:50:30.986Z,51.15
2024-04-19T08:51:44.556Z,50.00
2024-04-19T08:52:50.349Z,49.21
2024-04-19T08:53:31.908Z,39.06
2024-04-19T08:54:30.879Z,40.00
2024-04-19T08:55:30.835Z,36.05
2024-04-19T08:56:30.827Z,32.60
2024-04-19T08:57:30.813Z,25.90
2024-04-19T08:58:30.797Z,44.78
2024-04-19T08:59:30.889Z,51.02
2024-04-19T09:00:30.805Z,50.35
2024-04-19T09:01:30.870Z,50.00
2024-04-19T09:02:30.764Z,50.00
2024-04-19T09:03:30.854Z,51.20
2024-04-19T09:04:30.848Z,50.18
2024-04-19T09:05:30.731Z,50.00
2024-04-19T09:06:30.751Z,50.25
2024-04-19T09:07:30.737Z,50.09
2024-04-19T09:08:30.698Z,51.58
2024-04-19T09:09:30.728Z,51.00
2024-04-19T09:10:30.679Z,50.02
2024-04-19T09:11:30.733Z,50.00
2024-04-19T09:12:30.733Z,50.17
2024-04-19T09:13:30.654Z,50.00
2024-04-19T09:14:30.675Z,51.36
2024-04-19T09:15:30.685Z,50.11
2024-04-19T09:16:30.654Z,53.24
2024-04-19T09:17:30.778Z,53.20
2024-04-19T09:18:30.640Z,52.89
2024-04-19T09:19:30.629Z,54.93
2024-04-19T09:20:30.628Z,57.13
2024-04-19T09:21:30.661Z,60.12
2024-04-19T09:22:31.225Z,62.38
2024-04-19T09:23:30.620Z,65.19
2024-04-19T09:24:31.032Z,69.41
2024-04-19T09:25:30.591Z,73.38
2024-04-19T09:26:31.216Z,77.56
2024-04-19T09:27:30.571Z,73.52
2024-04-19T09:28:31.285Z,80.64
2024-04-19T09:29:30.556Z,82.05
2024-04-19T09:30:30.630Z,82.69
2024-04-19T09:31:31.214Z,86.00
2024-04-19T09:32:30.590Z,94.23
2024-04-19T09:33:30.529Z,104.04
2024-04-19T09:34:30.449Z,118.34
2024-04-19T09:35:30.440Z,118.15
2024-04-19T09:36:30.451Z,125.06
2024-04-19T09:37:30.434Z,129.51
2024-04-19T09:38:30.401Z,139.81
2024-04-19T09:39:30.405Z,144.84
2024-04-19T09:40:31.236Z,152.78
2024-04-19T09:41:30.370Z,160.62
2024-04-19T09:42:30.440Z,169.65
2024-04-19T09:43:30.452Z,178.07
2024-04-19T09:44:30.384Z,180.86
2024-04-19T09:45:30.379Z,192.34
2024-04-19T09:46:30.386Z,192.46
2024-04-19T09:47:31.265Z,194.60
2024-04-19T09:48:30.515Z,198.32
2024-04-19T09:49:30.652Z,208.57
2024-04-19T09:50:30.419Z,226.86
2024-04-19T09:51:30.348Z,201.95
2024-04-19T09:52:32.237Z,202.45
2024-04-19T09:53:30.502Z,199.66
2024-04-19T09:54:30.776Z,200.18
2024-04-19T09:55:30.409Z,200.85
2024-04-19T09:56:30.340Z,199.18
2024-04-19T09:57:30.270Z,198.36
2024-04-19T09:58:30.239Z,199.78
2024-04-19T09:59:30.249Z,200.02
2024-04-19T10:00:31.037Z,199.96
2024-04-19T10:01:30.445Z,199.06
2024-04-19T10:02:36.371Z,200.00
2024-04-19T10:03:31.249Z,200.12
2024-04-19T10:04:30.276Z,201.31
2024-04-19T10:05:30.126Z,203.32
2024-04-19T10:06:30.207Z,208.48
2024-04-19T10:07:30.340Z,217.60
2024-04-19T10:08:30.073Z,209.50
2024-04-19T10:09:30.166Z,199.71
2024-04-19T10:10:30.108Z,198.60
2024-04-19T10:11:30.156Z,198.15
2024-04-19T10:12:30.130Z,197.88
2024-04-19T10:13:30.105Z,198.88
2024-04-19T10:14:30.046Z,199.57
2024-04-19T10:15:30.062Z,198.60
2024-04-19T10:16:30.007Z,199.04
2024-04-19T10:18:30.305Z,198.48
2024-04-19T10:19:36.692Z,198.63
2024-04-19T10:20:30.942Z,198.70
2024-04-19T10:21:29.986Z,199.16
2024-04-19T10:22:29.945Z,200.39
2024-04-19T10:23:30.111Z,203.41
2024-04-19T10:24:29.872Z,205.70
2024-04-19T10:25:29.840Z,199.71
2024-04-19T10:26:29.855Z,199.16
2024-04-19T10:27:30.055Z,200.03
2024-04-19T10:28:29.824Z,200.61
2024-04-19T10:29:29.796Z,202.62
2024-04-19T10:30:35.972Z,204.20
2024-04-19T10:31:30.774Z,199.88
2024-04-19T10:32:29.880Z,199.93
2024-04-19T10:33:29.746Z,200.77
2024-04-19T10:34:29.706Z,202.53
2024-04-19T10:35:29.676Z,205.89
2024-04-19T10:36:29.822Z,211.71
2024-04-19T10:37:29.644Z,205.21
2024-04-19T10:38:29.638Z,200.00
2024-04-19T10:39:29.927Z,199.86
2024-04-19T10:40:29.614Z,200.00
2024-04-19T10:41:29.642Z,199.80
2024-04-19T10:42:29.629Z,199.70
2024-04-19T10:43:29.648Z,200.00
2024-04-19T10:44:29.656Z,199.30
2024-04-19T10:45:29.572Z,200.00
2024-04-19T10:46:29.517Z,199.74
2024-04-19T10:47:29.543Z,199.14
2024-04-19T10:48:30.915Z,199.46
2024-04-19T10:49:29.765Z,199.91
2024-04-19T10:50:29.603Z,199.92
2024-04-19T10:51:29.467Z,200.27
2024-04-19T10:52:29.615Z,201.48
2024-04-19T10:53:29.535Z,200.10
2024-04-19T10:54:30.258Z,200.81
2024-04-19T10:55:29.367Z,202.01
2024-04-19T10:56:29.377Z,204.32
2024-04-19T10:57:29.351Z,208.88
2024-04-19T10:58:29.287Z,203.30
2024-04-19T10:59:29.285Z,199.89
2024-04-19T11:00:29.270Z,199.79
2024-04-19T11:01:29.266Z,199.85
2024-04-19T11:02:29.296Z,200.19
2024-04-19T11:03:29.199Z,200.96
2024-04-19T11:04:29.892Z,203.35
2024-04-19T11:05:29.144Z,206.61
2024-04-19T11:06:29.140Z,201.39
2024-04-19T11:07:29.072Z,201.43
2024-04-19T11:08:29.074Z,201.85
2024-04-19T11:09:29.074Z,202.34
2024-04-19T11:10:29.044Z,204.48
2024-04-19T11:11:29.043Z,206.78
2024-04-19T11:12:29.026Z,202.62
2024-04-19T11:13:28.999Z,199.55
2024-04-19T11:14:28.947Z,200.00
2024-04-19T11:15:29.154Z,199.71
2024-04-19T11:16:28.923Z,199.74
2024-04-19T11:17:28.985Z,200.00
2024-04-19T11:18:29.155Z,200.58
2024-04-19T11:19:28.893Z,202.06
2024-04-19T11:20:28.869Z,204.38
2024-04-19T11:21:28.836Z,200.00
2024-04-19T11:22:28.868Z,199.69
2024-04-19T11:23:28.752Z,199.76
2024-04-19T11:24:28.777Z,199.31
2024-04-19T11:25:28.746Z,200.00
2024-04-19T11:26:28.735Z,200.00
2024-04-19T11:27:28.779Z,200.00
2024-04-19T11:28:28.799Z,199.27
2024-04-19T11:29:29.147Z,199.47
2024-04-19T11:30:28.909Z,199.60
2024-04-19T11:31:29.007Z,200.00
2024-04-19T11:32:29.014Z,200.00
2024-04-19T11:33:29.846Z,199.63
2024-04-19T11:34:29.100Z,199.84
2024-04-19T11:35:29.045Z,199.70
2024-04-19T11:36:29.273Z,199.79
2024-04-19T11:37:29.094Z,199.82
2024-04-19T11:38:29.775Z,199.43
2024-04-19T11:39:29.275Z,200.12
2024-04-19T11:40:29.168Z,199.58
2024-04-19T11:41:29.103Z,200.12
2024-04-19T11:42:29.106Z,200.25
2024-04-19T11:43:29.094Z,200.93
2024-04-19T11:44:29.058Z,200.18
2024-04-19T11:45:29.087Z,200.43
2024-04-19T11:46:28.995Z,201.16
2024-04-19T11:47:29.012Z,200.23
2024-04-19T11:48:29.246Z,200.74
2024-04-19T11:49:28.992Z,201.61
2024-04-19T11:50:28.906Z,202.79
2024-04-19T11:51:28.928Z,200.30
2024-04-19T11:52:28.874Z,200.96
2024-04-19T11:53:28.851Z,202.03
2024-04-19T11:54:28.883Z,204.15
2024-04-19T11:55:28.836Z,206.82
2024-04-19T11:56:28.780Z,201.66
2024-04-19T11:57:28.754Z,199.25
2024-04-19T11:58:28.683Z,200.00
2024-04-19T11:59:28.672Z,199.77
2024-04-19T12:00:28.665Z,199.39
2024-04-19T12:01:28.695Z,199.82
2024-04-19T12:02:28.646Z,199.43
2024-04-19T12:03:28.726Z,200.00
2024-04-19T12:04:28.808Z,199.85
2024-04-19T12:05:28.793Z,199.28
2024-04-19T12:06:28.798Z,199.87
2024-04-19T12:07:28.786Z,199.36
2024-04-19T12:08:28.833Z,199.22
2024-04-19T12:09:28.918Z,199.84
2024-04-19T12:10:28.839Z,199.79
2024-04-19T12:11:28.902Z,198.99
2024-04-19T12:14:13.286Z,199.77
2024-04-19T12:15:13.927Z,199.80
2024-04-19T12:17:30.239Z,200.05
2024-04-19T12:18:29.442Z,200.50
2024-04-19T12:19:28.923Z,201.31
2024-04-19T12:20:41.802Z,203.03
2024-04-19T12:21:29.940Z,199.88
2024-04-19T12:22:30.090Z,200.27
2024-04-19T12:23:29.747Z,200.91
2024-04-19T12:24:29.222Z,202.16
2024-04-19T12:25:29.405Z,204.13
2024-04-19T12:26:29.058Z,199.80
2024-04-19T12:27:28.981Z,200.00
2024-04-19T12:28:28.810Z,199.58
2024-04-19T12:29:28.827Z,199.98
2024-04-19T12:30:28.774Z,199.70
2024-04-19T12:31:28.747Z,199.97
2024-04-19T12:32:28.760Z,199.97
2024-04-19T12:33:28.816Z,200.08
2024-04-19T12:34:28.699Z,200.18
2024-04-19T12:35:28.638Z,200.52
2024-04-19T12:36:28.646Z,200.56
2024-04-19T12:37:28.650Z,199.91
2024-04-19T12:38:29.326Z,199.88
2024-04-19T12:39:28.615Z,199.32
2024-04-19T12:40:28.544Z,199.58
2024-04-19T12:41:28.487Z,199.53
2024-04-19T12:42:28.480Z,199.35
2024-04-19T12:43:28.466Z,199.23
2024-04-19T12:44:28.424Z,199.72
2024-04-19T12:45:28.482Z,199.23
2024-04-19T12:46:28.469Z,199.47
2024-04-19T12:47:28.588Z,199.79
2024-04-19T12:48:28.717Z,199.70
2024-04-19T12:49:28.582Z,199.82
2024-04-19T12:50:28.529Z,199.39
2024-04-19T12:51:28.567Z,199.59
2024-04-19T12:52:28.559Z,199.13
2024-04-19T12:53:28.583Z,199.09
2024-04-19T12:54:28.616Z,199.60
2024-04-19T12:55:28.619Z,199.57
2024-04-19T12:56:28.634Z,199.21
2024-04-19T12:57:28.760Z,199.55
2024-04-19T12:58:28.695Z,199.13
2024-04-19T12:59:28.694Z,198.69
2024-04-19T13:00:28.785Z,199.23
2024-04-19T13:01:28.910Z,199.41
2024-04-19T13:02:28.752Z,199.55
2024-04-19T13:03:28.913Z,199.58
2024-04-19T13:04:28.787Z,199.47
2024-04-19T13:05:28.792Z,199.66
2024-04-19T13:06:28.888Z,199.32
2024-04-19T13:07:28.831Z,199.54
2024-04-19T13:08:28.807Z,199.58
2024-04-19T13:09:28.831Z,199.61
2024-04-19T13:10:28.841Z,199.91
2024-04-19T13:11:28.786Z,199.71
2024-04-19T13:12:28.765Z,200.53